Time;durP1;ratioP1;P1;durP2;ratioP2;P2;SDS_P1;SDS_P2;PMS_P1;PMS_P2;Temp;Humidity;BMP_temperature;BMP_pressure;BME280_temperature;BME280_humidity;BME280_pressure;Samples;Min_cycle;Max_cycle;Signal;HPM_P1;HPM_P2
2024/01/29 00:01:44;;;;;;;47.20;22.33;;;;;;;;;;5100866;28;20020;-85
2024/01/29 00:04:10;;;;;;;59.03;22.67;;;;;;;;;;5083413;28;20469;-85
2024/01/29 00:06:36;;;;;;;60.40;21.92;;;;;;;;;;5105390;28;20030;-85
2024/01/29 00:09:02;;;;;;;51.95;23.40;;;;;;;;;;5072911;28;20405;-84
2024/01/29 00:11:29;;;;;;;50.15;22.60;;;;;;;;;;5096733;28;20044;-86
2024/01/29 00:13:55;;;;;;;53.08;22.10;;;;;;;;;;5095368;28;20020;-84
2024/01/29 00:16:21;;;;;;;58.10;22.05;;;;;;;;;;5076952;28;20106;-86
2024/01/29 00:18:55;;;;;;;49.00;22.58;;;;;;;;;;5094949;28;20534;-86
2024/01/29 00:21:20;;;;;;;48.83;20.27;;;;;;;;;;5095078;28;20012;-85
2024/01/29 00:23:46;;;;;;;45.83;20.95;;;;;;;;;;5093919;28;20027;-87
2024/01/29 00:26:14;;;;;;;49.20;21.95;;;;;;;;;;5095759;28;20091;-88
2024/01/29 00:28:40;;;;;;;50.42;21.60;;;;;;;;;;5096340;28;20759;-87
2024/01/29 00:31:05;;;;;;;49.85;21.38;;;;;;;;;;5090784;28;20436;-88
2024/01/29 00:33:31;;;;;;;49.45;22.88;;;;;;;;;;5097759;28;20099;-86
2024/01/29 00:35:57;;;;;;;48.83;21.83;;;;;;;;;;5100553;28;20050;-86
2024/01/29 00:38:32;;;;;;;48.13;22.20;;;;;;;;;;5098385;28;20440;-85
2024/01/29 00:40:57;;;;;;;50.97;21.45;;;;;;;;;;5098395;28;20012;-84
2024/01/29 00:43:23;;;;;;;48.17;20.88;;;;;;;;;;5098455;28;20166;-86
2024/01/29 00:45:49;;;;;;;41.75;21.60;;;;;;;;;;5080583;28;20046;-88
2024/01/29 00:48:15;;;;;;;47.47;19.13;;;;;;;;;;5100621;28;20026;-87
2024/01/29 00:50:42;;;;;;;50.85;20.52;;;;;;;;;;5100755;28;20028;-87
2024/01/29 00:53:07;;;;;;;39.25;19.15;;;;;;;;;;5083395;28;20020;-88
2024/01/29 00:55:34;;;;;;;38.13;18.45;;;;;;;;;;5099612;28;20036;-87
2024/01/29 00:58:03;;;;;;;43.78;20.10;;;;;;;;;;5099984;28;20107;-86
2024/01/29 01:00:28;;;;;;;41.83;19.95;;;;;;;;;;5099868;28;20090;-87
2024/01/29 01:02:54;;;;;;;35.63;17.35;;;;;;;;;;5099782;28;20028;-87
2024/01/29 01:05:20;;;;;;;35.63;18.33;;;;;;;;;;5099192;28;20050;-88
2024/01/29 01:07:53;;;;;;;47.22;20.70;;;;;;;;;;5088686;28;20016;-87
2024/01/29 01:10:19;;;;;;;42.40;20.60;;;;;;;;;;5108347;28;20020;-85
2024/01/29 01:12:47;;;;;;;39.67;19.63;;;;;;;;;;5104964;28;20059;-85
2024/01/29 01:15:12;;;;;;;41.78;19.65;;;;;;;;;;5099617;28;20020;-86
2024/01/29 01:17:40;;;;;;;40.65;18.67;;;;;;;;;;5099706;28;20480;-86
2024/01/29 01:20:08;;;;;;;42.13;18.20;;;;;;;;;;5108739;28;20061;-85
2024/01/29 01:22:34;;;;;;;44.50;18.23;;;;;;;;;;5120216;28;20019;-86
2024/01/29 01:25:00;;;;;;;42.95;18.77;;;;;;;;;;5120939;28;20047;-85
2024/01/29 01:27:27;;;;;;;37.08;18.23;;;;;;;;;;5098856;28;20020;-86
2024/01/29 01:29:53;;;;;;;39.05;18.50;;;;;;;;;;5099000;28;20113;-86
2024/01/29 01:32:19;;;;;;;37.65;17.35;;;;;;;;;;5099065;28;20020;-84
2024/01/29 01:34:44;;;;;;;46.40;22.13;;;;;;;;;;5099271;28;20028;-86
2024/01/29 01:37:31;;;;;;;39.70;18.98;;;;;;;;;;5099050;28;20031;-87
2024/01/29 01:39:57;;;;;;;42.47;20.08;;;;;;;;;;5097980;28;20085;-86
2024/01/29 01:42:24;;;;;;;41.97;19.85;;;;;;;;;;5103758;28;20074;-84
2024/01/29 01:44:49;;;;;;;44.30;20.58;;;;;;;;;;5085803;28;20052;-85
2024/01/29 01:47:15;;;;;;;46.47;21.10;;;;;;;;;;5082135;28;20473;-86
2024/01/29 01:49:49;;;;;;;45.05;20.58;;;;;;;;;;5082739;28;20063;-84
2024/01/29 01:52:16;;;;;;;41.92;19.98;;;;;;;;;;5098213;28;20092;-85
2024/01/29 01:54:43;;;;;;;46.65;20.58;;;;;;;;;;5094872;28;20032;-87
2024/01/29 01:57:29;;;;;;;45.80;20.20;;;;;;;;;;5098375;28;20024;-87
2024/01/29 01:59:56;;;;;;;48.00;21.60;;;;;;;;;;5094269;28;20039;-86
2024/01/29 02:02:36;;;;;;;39.35;19.17;;;;;;;;;;5100242;28;20024;-88
2024/01/29 02:05:03;;;;;;;41.38;19.83;;;;;;;;;;5106570;28;20100;-86
2024/01/29 02:07:31;;;;;;;43.20;20.90;;;;;;;;;;5120509;28;20020;-85
2024/01/29 02:10:04;;;;;;;52.28;22.50;;;;;;;;;;5119864;28;20012;-84
2024/01/29 02:12:31;;;;;;;41.13;20.48;;;;;;;;;;5115340;28;20074;-87
2024/01/29 02:14:57;;;;;;;46.90;21.67;;;;;;;;;;5100848;28;20052;-85
2024/01/29 02:17:25;;;;;;;55.38;23.00;;;;;;;;;;5117658;28;20043;-86
2024/01/29 02:19:51;;;;;;;45.97;21.38;;;;;;;;;;5101591;28;20477;-86
2024/01/29 02:22:17;;;;;;;44.15;19.73;;;;;;;;;;5097072;28;20016;-88
2024/01/29 02:24:43;;;;;;;48.55;21.08;;;;;;;;;;5111118;28;20016;-86
2024/01/29 02:27:09;;;;;;;47.20;22.30;;;;;;;;;;5097933;28;20024;-87
2024/01/29 02:29:34;;;;;;;46.90;21.45;;;;;;;;;;5073869;28;20379;-85
2024/01/29 02:32:05;;;;;;;43.75;23.20;;;;;;;;;;5076887;28;20039;-85
2024/01/29 02:34:30;;;;;;;46.35;22.05;;;;;;;;;;5072471;28;20020;-85
2024/01/29 02:36:55;;;;;;;46.92;22.27;;;;;;;;;;5076216;28;20036;-86
2024/01/29 02:39:22;;;;;;;45.45;20.55;;;;;;;;;;5078549;28;20103;-86
2024/01/29 02:41:47;;;;;;;50.08;20.88;;;;;;;;;;5077828;28;20094;-85
2024/01/29 02:44:14;;;;;;;47.22;21.65;;;;;;;;;;5079041;28;20465;-86
2024/01/29 02:46:42;;;;;;;44.70;20.83;;;;;;;;;;5081609;28;20025;-87
2024/01/29 02:49:09;;;;;;;40.92;22.05;;;;;;;;;;5081783;28;20363;-88
2024/01/29 02:51:35;;;;;;;44.70;19.50;;;;;;;;;;5077723;28;20029;-89
2024/01/29 02:54:00;;;;;;;46.78;22.85;;;;;;;;;;5076301;28;20024;-88
2024/01/29 02:56:26;;;;;;;45.08;20.50;;;;;;;;;;5074293;28;20020;-87
2024/01/29 02:58:52;;;;;;;44.13;20.95;;;;;;;;;;5076928;28;20024;-88
2024/01/29 03:01:19;;;;;;;47.75;21.67;;;;;;;;;;5076995;28;20359;-86
2024/01/29 03:03:53;;;;;;;57.92;20.98;;;;;;;;;;5075138;28;20074;-85
2024/01/29 03:06:18;;;;;;;47.08;21.20;;;;;;;;;;5079840;28;20032;-85
2024/01/29 03:08:46;;;;;;;45.72;20.80;;;;;;;;;;5082044;28;20017;-88
2024/01/29 03:11:11;;;;;;;50.15;21.85;;;;;;;;;;5085914;28;20084;-87
2024/01/29 03:13:37;;;;;;;50.17;20.23;;;;;;;;;;5089464;28;20031;-87
2024/01/29 03:16:03;;;;;;;45.58;21.58;;;;;;;;;;5090059;28;20027;-87
2024/01/29 03:18:29;;;;;;;40.22;20.70;;;;;;;;;;5087131;28;20024;-87
2024/01/29 03:20:56;;;;;;;45.47;22.05;;;;;;;;;;5076217;28;20017;-89
2024/01/29 03:23:23;;;;;;;44.05;21.42;;;;;;;;;;5078188;28;20024;-87
2024/01/29 03:25:49;;;;;;;48.65;20.58;;;;;;;;;;5075043;28;20082;-86
2024/01/29 03:28:16;;;;;;;45.40;22.08;;;;;;;;;;5076202;28;20103;-86
2024/01/29 03:30:43;;;;;;;41.63;20.33;;;;;;;;;;5091335;28;20044;-89
2024/01/29 03:33:08;;;;;;;50.95;20.58;;;;;;;;;;5096354;28;20381;-88
2024/01/29 03:35:34;;;;;;;43.67;20.17;;;;;;;;;;5096505;28;20030;-86
2024/01/29 03:37:59;;;;;;;42.38;18.77;;;;;;;;;;5077992;28;20016;-88
2024/01/29 03:40:25;;;;;;;46.55;21.63;;;;;;;;;;5078481;28;20041;-87
2024/01/29 03:42:50;;;;;;;47.95;20.05;;;;;;;;;;5096048;28;20083;-87
2024/01/29 03:45:16;;;;;;;48.60;21.73;;;;;;;;;;5078666;28;20028;-87
2024/01/29 03:47:42;;;;;;;39.67;19.17;;;;;;;;;;5081822;28;20043;-86
2024/01/29 03:50:08;;;;;;;43.10;21.55;;;;;;;;;;5101777;28;20020;-88
2024/01/29 03:52:35;;;;;;;41.63;20.80;;;;;;;;;;5100436;28;20028;-87
2024/01/29 03:55:00;;;;;;;52.40;23.27;;;;;;;;;;5098724;28;20028;-88
2024/01/29 03:57:27;;;;;;;49.78;21.23;;;;;;;;;;5079142;28;20024;-87
2024/01/29 03:59:56;;;;;;;52.75;22.65;;;;;;;;;;5098433;28;20027;-86
2024/01/29 04:02:23;;;;;;;52.05;22.17;;;;;;;;;;5080780;28;20354;-87
2024/01/29 04:04:49;;;;;;;49.88;22.58;;;;;;;;;;5080577;28;20471;-89
2024/01/29 04:07:16;;;;;;;52.20;22.65;;;;;;;;;;5061998;28;20035;-88
2024/01/29 04:09:43;;;;;;;53.17;26.77;;;;;;;;;;5098767;28;20028;-88
2024/01/29 04:12:09;;;;;;;51.42;25.65;;;;;;;;;;5100397;28;20016;-88
2024/01/29 04:14:56;;;;;;;54.92;24.63;;;;;;;;;;5100444;28;20482;-89
2024/01/29 04:17:23;;;;;;;59.38;28.13;;;;;;;;;;5100141;28;20544;-87
2024/01/29 04:19:48;;;;;;;59.60;26.73;;;;;;;;;;5082063;28;20066;-88
2024/01/29 04:22:15;;;;;;;57.33;26.88;;;;;;;;;;5081558;28;20024;-86
2024/01/29 04:24:40;;;;;;;58.58;27.52;;;;;;;;;;5101706;28;20020;-90
2024/01/29 04:27:07;;;;;;;60.47;28.20;;;;;;;;;;5092970;28;20022;-88
2024/01/29 04:29:32;;;;;;;61.17;28.35;;;;;;;;;;5099689;28;20127;-88
2024/01/29 04:31:58;;;;;;;57.80;26.50;;;;;;;;;;5100210;28;20075;-88
2024/01/29 04:34:25;;;;;;;61.42;27.52;;;;;;;;;;5081862;28;20026;-87
2024/01/29 04:36:52;;;;;;;50.28;26.52;;;;;;;;;;5081610;28;20035;-88
2024/01/29 04:39:32;;;;;;;61.50;27.25;;;;;;;;;;5100222;28;20069;-88
2024/01/29 04:41:59;;;;;;;53.35;26.42;;;;;;;;;;5097549;28;20469;-84
2024/01/29 04:44:25;;;;;;;50.58;24.67;;;;;;;;;;5098680;28;20062;-85
2024/01/29 04:46:52;;;;;;;55.58;28.02;;;;;;;;;;5098584;28;20019;-83
2024/01/29 04:49:18;;;;;;;54.47;25.80;;;;;;;;;;5080804;28;20114;-85
2024/01/29 04:51:44;;;;;;;55.70;27.05;;;;;;;;;;5099568;28;20035;-85
2024/01/29 04:54:10;;;;;;;57.20;27.20;;;;;;;;;;5100085;28;20454;-86
2024/01/29 04:56:37;;;;;;;58.20;27.13;;;;;;;;;;5081220;28;20024;-87
2024/01/29 04:59:03;;;;;;;57.78;27.02;;;;;;;;;;5081643;28;20461;-87
2024/01/29 05:01:28;;;;;;;60.13;28.33;;;;;;;;;;5088005;28;20024;-86
2024/01/29 05:03:55;;;;;;;57.92;28.75;;;;;;;;;;5085020;28;20024;-87
2024/01/29 05:06:21;;;;;;;59.42;28.63;;;;;;;;;;5103322;28;20036;-87
2024/01/29 05:08:49;;;;;;;58.80;28.42;;;;;;;;;;5104210;28;20016;-86
2024/01/29 05:11:15;;;;;;;66.32;30.38;;;;;;;;;;5098612;28;20028;-90
2024/01/29 05:13:42;;;;;;;61.25;29.75;;;;;;;;;;5080805;28;20028;-87
2024/01/29 05:16:10;;;;;;;66.75;30.45;;;;;;;;;;5058745;28;20385;-86
2024/01/29 05:18:35;;;;;;;67.93;31.00;;;;;;;;;;5080260;28;20063;-87
2024/01/29 05:21:00;;;;;;;74.60;29.50;;;;;;;;;;5080190;28;20445;-86
2024/01/29 05:23:26;;;;;;;75.00;32.03;;;;;;;;;;5080571;28;20024;-87
2024/01/29 05:25:52;;;;;;;76.32;33.50;;;;;;;;;;5079456;28;20039;-86
2024/01/29 05:28:19;;;;;;;74.88;33.35;;;;;;;;;;5098559;28;20021;-87
2024/01/29 05:30:44;;;;;;;70.03;32.83;;;;;;;;;;5076985;28;20040;-85
2024/01/29 05:33:32;;;;;;;83.45;33.30;;;;;;;;;;5078921;28;20048;-84
2024/01/29 05:35:58;;;;;;;75.72;33.60;;;;;;;;;;5080933;28;20032;-84
2024/01/29 05:38:25;;;;;;;74.15;32.40;;;;;;;;;;5079186;28;20099;-83
2024/01/29 05:40:51;;;;;;;75.40;32.95;;;;;;;;;;5078602;28;20017;-84
2024/01/29 05:43:19;;;;;;;70.78;33.65;;;;;;;;;;5079135;28;20517;-84
2024/01/29 05:45:46;;;;;;;77.40;33.33;;;;;;;;;;5076101;28;20404;-85
2024/01/29 05:48:13;;;;;;;73.38;31.08;;;;;;;;;;5076376;28;20476;-84
2024/01/29 05:50:39;;;;;;;66.85;29.45;;;;;;;;;;5059211;28;20032;-84
2024/01/29 05:53:05;;;;;;;72.35;34.42;;;;;;;;;;5078051;28;20021;-83
2024/01/29 05:55:34;;;;;;;71.60;30.52;;;;;;;;;;5075714;28;20446;-83
2024/01/29 05:57:59;;;;;;;66.68;32.78;;;;;;;;;;5079162;28;20099;-82
2024/01/29 06:00:26;;;;;;;83.55;31.25;;;;;;;;;;5079163;28;20074;-83
2024/01/29 06:02:51;;;;;;;71.32;30.20;;;;;;;;;;5075711;28;20028;-83
2024/01/29 06:05:17;;;;;;;81.75;32.63;;;;;;;;;;5076276;28;20016;-83
2024/01/29 06:07:42;;;;;;;69.15;31.42;;;;;;;;;;5075987;28;20111;-83
2024/01/29 06:10:08;;;;;;;66.30;32.38;;;;;;;;;;5074339;28;20020;-82
2024/01/29 06:12:34;;;;;;;71.55;33.75;;;;;;;;;;5075809;28;20115;-83
2024/01/29 06:14:59;;;;;;;70.60;33.08;;;;;;;;;;5076472;28;20060;-84
2024/01/29 06:17:24;;;;;;;70.85;32.17;;;;;;;;;;5076572;28;20059;-83
2024/01/29 06:19:53;;;;;;;73.63;31.48;;;;;;;;;;5076580;28;20043;-83
2024/01/29 06:22:18;;;;;;;73.90;33.92;;;;;;;;;;5073838;28;20040;-83
2024/01/29 06:24:44;;;;;;;65.97;30.88;;;;;;;;;;5075363;28;20028;-83
2024/01/29 06:27:10;;;;;;;66.30;30.17;;;;;;;;;;5092967;28;20027;-82
2024/01/29 06:29:35;;;;;;;74.15;32.35;;;;;;;;;;5104665;28;20083;-84
2024/01/29 06:32:04;;;;;;;66.43;30.92;;;;;;;;;;5116096;28;20024;-78
2024/01/29 06:34:33;;;;;;;67.90;31.52;;;;;;;;;;5102588;28;20016;-78
2024/01/29 06:36:59;;;;;;;72.90;32.28;;;;;;;;;;5102554;28;20051;-77
2024/01/29 06:39:25;;;;;;;73.80;34.47;;;;;;;;;;5092078;28;20035;-82
2024/01/29 06:41:51;;;;;;;73.93;31.98;;;;;;;;;;5096470;28;20031;-81
2024/01/29 06:44:16;;;;;;;79.57;32.15;;;;;;;;;;5097262;28;20461;-84
2024/01/29 06:46:43;;;;;;;71.25;32.28;;;;;;;;;;5096431;28;20020;-83
2024/01/29 06:49:30;;;;;;;77.10;32.15;;;;;;;;;;5063621;28;20370;-85
2024/01/29 06:51:57;;;;;;;70.03;32.33;;;;;;;;;;5094595;28;20032;-83
2024/01/29 06:54:24;;;;;;;72.45;32.03;;;;;;;;;;5098174;28;20028;-82
2024/01/29 06:56:52;;;;;;;76.10;33.45;;;;;;;;;;5098678;28;20012;-84
2024/01/29 06:59:19;;;;;;;84.25;36.35;;;;;;;;;;5082383;28;20020;-80
2024/01/29 07:01:46;;;;;;;73.32;35.42;;;;;;;;;;5078095;28;20023;-79
2024/01/29 07:04:14;;;;;;;70.10;34.08;;;;;;;;;;5096095;28;20066;-79
2024/01/29 07:06:43;;;;;;;69.47;32.67;;;;;;;;;;5096168;28;20020;-79
2024/01/29 07:09:10;;;;;;;75.57;34.88;;;;;;;;;;5096523;28;20095;-85
2024/01/29 07:11:37;;;;;;;71.15;35.78;;;;;;;;;;5078082;28;20077;-84
2024/01/29 07:14:03;;;;;;;77.20;34.80;;;;;;;;;;5096015;28;20098;-85
2024/01/29 07:16:31;;;;;;;64.38;33.97;;;;;;;;;;5095837;28;20065;-86
2024/01/29 07:18:57;;;;;;;69.63;32.67;;;;;;;;;;5096152;28;20016;-81
2024/01/29 07:21:22;;;;;;;64.68;31.95;;;;;;;;;;5098188;28;20031;-87
2024/01/29 07:23:50;;;;;;;68.72;33.63;;;;;;;;;;5100102;28;20008;-84
2024/01/29 07:26:24;;;;;;;77.70;33.05;;;;;;;;;;5095578;28;20012;-88
2024/01/29 07:28:50;;;;;;;74.93;34.35;;;;;;;;;;5096647;28;20048;-89
2024/01/29 07:31:20;;;;;;;75.25;35.08;;;;;;;;;;5096104;28;20123;-89
2024/01/29 07:33:46;;;;;;;72.80;31.70;;;;;;;;;;5096688;28;20541;-89
2024/01/29 07:36:13;;;;;;;80.80;34.10;;;;;;;;;;5077705;28;20043;-86
2024/01/29 07:38:38;;;;;;;64.13;31.40;;;;;;;;;;5096410;28;20020;-87
2024/01/29 07:41:04;;;;;;;70.07;33.08;;;;;;;;;;5099046;28;20134;-80
2024/01/29 07:43:30;;;;;;;71.75;33.38;;;;;;;;;;5099463;28;20028;-88
2024/01/29 07:45:57;;;;;;;75.32;35.25;;;;;;;;;;5107369;28;20035;-85
2024/01/29 07:48:23;;;;;;;72.20;32.88;;;;;;;;;;5088167;28;20027;-87
2024/01/29 07:50:48;;;;;;;66.72;32.95;;;;;;;;;;5106855;28;20024;-89
2024/01/29 07:53:15;;;;;;;68.55;34.17;;;;;;;;;;5078144;28;20028;-86
2024/01/29 07:55:41;;;;;;;69.45;32.95;;;;;;;;;;5076742;28;20035;-85
2024/01/29 07:58:08;;;;;;;66.65;31.65;;;;;;;;;;5097475;28;20508;-84
2024/01/29 08:00:33;;;;;;;69.70;30.88;;;;;;;;;;5099022;28;20016;-87
2024/01/29 08:02:59;;;;;;;69.78;33.28;;;;;;;;;;5096995;28;20518;-84
2024/01/29 08:05:24;;;;;;;62.13;30.60;;;;;;;;;;5079302;28;20016;-83
2024/01/29 08:07:50;;;;;;;62.95;31.17;;;;;;;;;;5081052;28;20028;-83
2024/01/29 08:10:16;;;;;;;68.28;32.33;;;;;;;;;;5099842;28;20099;-84
2024/01/29 08:12:41;;;;;;;62.33;31.15;;;;;;;;;;5099302;28;20120;-85
2024/01/29 08:15:08;;;;;;;59.38;29.60;;;;;;;;;;5097303;28;20027;-80
2024/01/29 08:17:36;;;;;;;53.80;26.77;;;;;;;;;;5097170;28;20023;-80
2024/01/29 08:20:03;;;;;;;53.17;27.63;;;;;;;;;;5096775;28;20016;-83
2024/01/29 08:22:30;;;;;;;55.92;27.42;;;;;;;;;;5096655;28;20019;-83
2024/01/29 08:24:57;;;;;;;50.25;26.23;;;;;;;;;;5096846;28;20020;-83
2024/01/29 08:27:22;;;;;;;50.08;26.52;;;;;;;;;;5077192;28;20393;-84
2024/01/29 08:29:48;;;;;;;56.30;25.52;;;;;;;;;;5095529;28;20036;-84
2024/01/29 08:32:14;;;;;;;53.58;24.52;;;;;;;;;;5078027;28;20024;-82
2024/01/29 08:34:40;;;;;;;49.45;27.25;;;;;;;;;;5096910;28;20017;-83
2024/01/29 08:37:05;;;;;;;49.90;26.83;;;;;;;;;;5098409;28;20030;-83
2024/01/29 08:39:30;;;;;;;57.20;27.08;;;;;;;;;;5079999;28;20024;-84
2024/01/29 08:41:58;;;;;;;53.80;28.75;;;;;;;;;;5089116;28;20085;-82
2024/01/29 08:44:25;;;;;;;52.97;26.98;;;;;;;;;;5077216;28;20024;-82
2024/01/29 08:46:51;;;;;;;52.88;27.70;;;;;;;;;;5094921;28;20054;-82
2024/01/29 08:49:17;;;;;;;48.38;26.02;;;;;;;;;;5075349;28;20075;-80
2024/01/29 08:51:45;;;;;;;56.25;26.55;;;;;;;;;;5096104;28;20032;-84
2024/01/29 08:54:10;;;;;;;50.72;27.02;;;;;;;;;;5095632;28;20039;-83
2024/01/29 08:56:39;;;;;;;47.65;25.58;;;;;;;;;;5100108;28;20032;-82
2024/01/29 08:59:06;;;;;;;53.30;26.77;;;;;;;;;;5085425;28;20097;-84
2024/01/29 09:01:34;;;;;;;54.28;27.25;;;;;;;;;;5065274;28;20369;-84
2024/01/29 09:03:59;;;;;;;49.35;24.42;;;;;;;;;;5100457;28;20483;-82
2024/01/29 09:06:31;;;;;;;52.00;25.52;;;;;;;;;;5083961;28;20020;-81
2024/01/29 09:08:56;;;;;;;46.10;25.00;;;;;;;;;;5101250;28;20050;-84
2024/01/29 09:11:30;;;;;;;49.15;24.83;;;;;;;;;;5083671;28;20032;-83
2024/01/29 09:13:59;;;;;;;48.35;24.17;;;;;;;;;;5061155;28;20020;-84
2024/01/29 09:16:25;;;;;;;49.88;25.80;;;;;;;;;;5080185;28;20047;-85
2024/01/29 09:18:51;;;;;;;46.03;23.30;;;;;;;;;;5080622;28;20426;-86
2024/01/29 09:21:17;;;;;;;52.83;23.83;;;;;;;;;;5086217;28;20048;-87
2024/01/29 09:23:44;;;;;;;50.17;26.00;;;;;;;;;;5085141;28;20083;-89
2024/01/29 09:26:10;;;;;;;50.78;26.25;;;;;;;;;;5089261;28;20094;-88
2024/01/29 09:28:37;;;;;;;52.83;24.27;;;;;;;;;;5107051;28;20042;-86
2024/01/29 09:31:03;;;;;;;52.10;25.05;;;;;;;;;;5069640;28;20040;-80
2024/01/29 09:33:32;;;;;;;43.85;22.48;;;;;;;;;;5051065;28;20063;-84
2024/01/29 09:36:01;;;;;;;44.88;21.25;;;;;;;;;;5070520;28;20058;-86
2024/01/29 09:38:28;;;;;;;42.45;21.42;;;;;;;;;;5068616;28;20013;-80
2024/01/29 09:40:54;;;;;;;42.78;21.95;;;;;;;;;;5065859;28;20351;-81
2024/01/29 09:43:21;;;;;;;51.85;22.63;;;;;;;;;;5067966;28;20077;-86
2024/01/29 09:45:49;;;;;;;43.47;22.85;;;;;;;;;;5067568;28;20070;-84
2024/01/29 09:48:15;;;;;;;47.08;24.15;;;;;;;;;;5064109;28;20458;-80
2024/01/29 09:50:44;;;;;;;42.67;22.27;;;;;;;;;;5057704;28;20112;-82
2024/01/29 09:53:17;;;;;;;43.10;22.30;;;;;;;;;;5068358;28;20033;-86
2024/01/29 09:55:43;;;;;;;39.72;21.15;;;;;;;;;;5064362;28;20021;-79
2024/01/29 09:58:09;;;;;;;51.50;22.80;;;;;;;;;;5080114;28;20039;-82
2024/01/29 10:00:37;;;;;;;45.53;22.38;;;;;;;;;;5084667;28;20062;-84
2024/01/29 10:03:05;;;;;;;48.60;24.15;;;;;;;;;;5090551;28;20097;-86
2024/01/29 10:05:33;;;;;;;43.17;22.48;;;;;;;;;;5082894;28;20041;-80
2024/01/29 10:07:59;;;;;;;47.60;23.17;;;;;;;;;;5086110;28;20359;-86
2024/01/29 10:10:33;;;;;;;44.58;20.75;;;;;;;;;;5085372;28;20023;-86
2024/01/29 10:13:07;;;;;;;38.15;20.52;;;;;;;;;;5079757;28;20059;-87
2024/01/29 10:15:41;;;;;;;41.58;22.33;;;;;;;;;;5083883;28;20080;-85
2024/01/29 10:18:10;;;;;;;40.40;22.00;;;;;;;;;;5093331;28;20059;-85
2024/01/29 10:20:37;;;;;;;39.10;22.17;;;;;;;;;;5088032;28;20039;-84
2024/01/29 10:23:02;;;;;;;38.53;21.83;;;;;;;;;;5086447;28;20032;-85
2024/01/29 10:25:31;;;;;;;41.58;20.40;;;;;;;;;;5087484;28;20450;-82
2024/01/29 10:28:05;;;;;;;41.33;19.60;;;;;;;;;;5074760;28;20037;-82
2024/01/29 10:30:32;;;;;;;42.97;21.52;;;;;;;;;;5093750;28;20043;-84
2024/01/29 10:32:57;;;;;;;39.67;21.30;;;;;;;;;;5104846;28;20024;-85
2024/01/29 10:35:22;;;;;;;35.53;18.98;;;;;;;;;;5104350;28;20056;-85
2024/01/29 10:37:48;;;;;;;36.50;18.35;;;;;;;;;;5086268;28;20031;-81
2024/01/29 10:40:19;;;;;;;38.53;18.23;;;;;;;;;;5102814;28;20077;-84
2024/01/29 10:42:46;;;;;;;35.47;16.73;;;;;;;;;;5103422;28;20046;-82
2024/01/29 10:45:14;;;;;;;33.05;16.48;;;;;;;;;;5085207;28;20012;-84
2024/01/29 10:47:43;;;;;;;33.67;16.55;;;;;;;;;;5088210;28;20035;-85
2024/01/29 10:50:10;;;;;;;41.70;16.63;;;;;;;;;;5115080;28;20020;-85
2024/01/29 10:52:37;;;;;;;37.22;16.83;;;;;;;;;;5113300;28;20062;-84
2024/01/29 10:55:05;;;;;;;31.30;17.05;;;;;;;;;;5107468;28;20104;-80
2024/01/29 10:57:32;;;;;;;36.33;15.98;;;;;;;;;;5105377;28;20031;-82
2024/01/29 10:59:58;;;;;;;32.35;16.48;;;;;;;;;;5085284;28;20031;-81
2024/01/29 11:02:33;;;;;;;27.33;15.95;;;;;;;;;;5086693;28;20027;-84
2024/01/29 11:05:14;;;;;;;33.17;14.93;;;;;;;;;;5105962;28;20107;-84
2024/01/29 11:07:44;;;;;;;29.00;14.40;;;;;;;;;;5105618;28;20043;-85
2024/01/29 11:10:29;;;;;;;28.55;15.35;;;;;;;;;;5106917;28;20027;-87
2024/01/29 11:12:57;;;;;;;29.27;13.95;;;;;;;;;;5106825;28;20024;-84
2024/01/29 11:15:37;;;;;;;30.30;14.57;;;;;;;;;;5110475;28;20048;-88
2024/01/29 11:18:04;;;;;;;30.75;15.43;;;;;;;;;;5096399;28;20027;-86
2024/01/29 11:20:31;;;;;;;28.08;15.05;;;;;;;;;;5116175;28;20035;-87
2024/01/29 11:22:59;;;;;;;28.45;14.10;;;;;;;;;;5112972;28;20044;-84
2024/01/29 11:25:27;;;;;;;26.95;13.77;;;;;;;;;;5094904;28;20503;-82
2024/01/29 11:27:54;;;;;;;26.08;13.25;;;;;;;;;;5108952;28;20042;-83
2024/01/29 11:30:23;;;;;;;31.05;13.90;;;;;;;;;;5090290;28;20103;-83
2024/01/29 11:32:52;;;;;;;22.15;12.77;;;;;;;;;;5089477;28;20028;-84
2024/01/29 11:35:19;;;;;;;23.65;12.25;;;;;;;;;;5097578;28;20126;-82
2024/01/29 11:37:49;;;;;;;25.75;11.57;;;;;;;;;;5097380;28;20028;-81
2024/01/29 11:40:36;;;;;;;24.30;11.70;;;;;;;;;;5079086;28;20024;-81
2024/01/29 11:43:12;;;;;;;24.05;9.90;;;;;;;;;;5097338;28;20477;-83
2024/01/29 11:45:38;;;;;;;18.33;9.43;;;;;;;;;;5100226;28;20032;-84
2024/01/29 11:48:10;;;;;;;23.95;9.85;;;;;;;;;;5095670;28;20020;-82
2024/01/29 11:50:40;;;;;;;22.05;10.55;;;;;;;;;;5096025;28;20035;-86
2024/01/29 11:53:08;;;;;;;19.02;10.57;;;;;;;;;;5099734;28;20035;-85
2024/01/29 11:55:33;;;;;;;19.08;9.23;;;;;;;;;;5117198;28;20028;-85
2024/01/29 11:57:59;;;;;;;18.23;10.05;;;;;;;;;;5117476;28;20020;-87
2024/01/29 12:00:26;;;;;;;21.38;10.68;;;;;;;;;;5116497;28;20035;-88
2024/01/29 12:02:52;;;;;;;22.27;11.43;;;;;;;;;;5101719;28;20477;-77
2024/01/29 12:05:20;;;;;;;24.30;12.43;;;;;;;;;;5098189;28;20047;-79
2024/01/29 12:07:56;;;;;;;28.20;13.30;;;;;;;;;;5101095;28;20023;-78
2024/01/29 12:10:23;;;;;;;25.73;11.85;;;;;;;;;;5097822;28;20016;-78
2024/01/29 12:12:53;;;;;;;28.20;13.20;;;;;;;;;;5079487;28;20021;-80
2024/01/29 12:15:19;;;;;;;21.20;11.75;;;;;;;;;;5098351;28;20020;-80
2024/01/29 12:17:46;;;;;;;14.95;7.75;;;;;;;;;;5096520;28;20095;-79
2024/01/29 12:20:13;;;;;;;15.68;6.97;;;;;;;;;;5096317;28;20069;-80
2024/01/29 12:22:39;;;;;;;8.73;4.88;;;;;;;;;;5077915;28;20020;-79
2024/01/29 12:25:23;;;;;;;11.15;4.22;;;;;;;;;;5095814;28;20023;-80
2024/01/29 12:27:51;;;;;;;9.45;4.07;;;;;;;;;;5076683;28;20032;-80
2024/01/29 12:30:18;;;;;;;7.75;4.13;;;;;;;;;;5080144;28;20052;-83
2024/01/29 12:32:43;;;;;;;9.75;3.85;;;;;;;;;;5082024;28;20019;-81
2024/01/29 12:35:25;;;;;;;7.47;4.13;;;;;;;;;;5087611;28;20039;-83
2024/01/29 12:37:51;;;;;;;7.65;3.97;;;;;;;;;;5084374;28;20082;-78
2024/01/29 12:40:18;;;;;;;9.50;4.50;;;;;;;;;;5080255;28;20020;-81
2024/01/29 12:42:43;;;;;;;9.85;3.25;;;;;;;;;;5063440;28;20040;-81
2024/01/29 12:45:12;;;;;;;8.38;4.10;;;;;;;;;;5084910;28;20028;-80
2024/01/29 12:47:39;;;;;;;6.30;3.55;;;;;;;;;;5102300;28;20027;-78
2024/01/29 12:50:05;;;;;;;12.75;3.92;;;;;;;;;;5065151;28;20039;-80
2024/01/29 12:52:32;;;;;;;8.00;3.72;;;;;;;;;;5090640;28;20396;-79
2024/01/29 12:54:59;;;;;;;8.35;4.13;;;;;;;;;;5098634;28;20024;-81
2024/01/29 12:57:26;;;;;;;6.55;3.33;;;;;;;;;;5098060;28;20028;-78
2024/01/29 12:59:52;;;;;;;8.18;3.83;;;;;;;;;;5099432;28;20027;-82
2024/01/29 13:02:20;;;;;;;7.95;3.72;;;;;;;;;;5099221;28;20008;-82
2024/01/29 13:04:48;;;;;;;8.02;3.88;;;;;;;;;;5076916;28;20031;-77
2024/01/29 13:07:16;;;;;;;5.85;3.70;;;;;;;;;;5096965;28;20027;-81
2024/01/29 13:09:44;;;;;;;7.13;3.70;;;;;;;;;;5097302;28;20517;-78
2024/01/29 13:12:14;;;;;;;8.68;3.95;;;;;;;;;;5078222;28;20036;-77
2024/01/29 13:14:41;;;;;;;11.52;4.00;;;;;;;;;;5096947;28;20016;-78
2024/01/29 13:17:09;;;;;;;7.30;4.15;;;;;;;;;;5096842;28;20016;-77
2024/01/29 13:19:38;;;;;;;8.93;4.03;;;;;;;;;;5097642;28;20069;-76
2024/01/29 13:22:06;;;;;;;7.47;3.75;;;;;;;;;;5097619;28;20346;-79
2024/01/29 13:24:35;;;;;;;10.85;6.75;;;;;;;;;;5097164;28;20042;-79
2024/01/29 13:27:07;;;;;;;13.77;7.90;;;;;;;;;;5096960;28;20020;-79
2024/01/29 13:29:32;;;;;;;16.15;8.52;;;;;;;;;;5078998;28;20040;-80
2024/01/29 13:32:00;;;;;;;22.17;9.27;;;;;;;;;;5098543;28;20031;-80
2024/01/29 13:34:29;;;;;;;19.42;10.18;;;;;;;;;;5080597;28;20024;-76
2024/01/29 13:36:55;;;;;;;18.58;10.10;;;;;;;;;;5130062;22;20561;-76
2024/01/29 13:39:22;;;;;;;23.67;11.07;;;;;;;;;;5017269;28;20022;-76
2024/01/29 13:41:47;;;;;;;20.25;9.82;;;;;;;;;;5015286;28;20088;-78
2024/01/29 13:44:13;;;;;;;24.48;11.25;;;;;;;;;;5015939;28;20014;-77
2024/01/29 13:46:40;;;;;;;20.33;10.50;;;;;;;;;;5018458;28;20017;-78
2024/01/29 13:49:08;;;;;;;25.88;11.75;;;;;;;;;;5016288;28;20025;-78
2024/01/29 13:51:40;;;;;;;17.52;10.07;;;;;;;;;;5018024;28;20108;-80
2024/01/29 13:54:07;;;;;;;20.70;10.77;;;;;;;;;;5017899;28;20033;-79
2024/01/29 13:56:34;;;;;;;18.42;9.70;;;;;;;;;;5018000;28;20025;-77
2024/01/29 13:58:59;;;;;;;17.05;8.85;;;;;;;;;;5018871;28;20526;-80
2024/01/29 14:01:33;;;;;;;16.73;9.23;;;;;;;;;;5018000;28;20026;-80
2024/01/29 14:03:59;;;;;;;20.92;10.10;;;;;;;;;;5016520;28;20485;-81
2024/01/29 14:06:29;;;;;;;22.65;10.23;;;;;;;;;;5017548;28;20034;-79
2024/01/29 14:08:55;;;;;;;18.15;10.43;;;;;;;;;;5017893;28;20064;-79
2024/01/29 14:11:21;;;;;;;21.05;11.68;;;;;;;;;;5016130;28;20464;-77
2024/01/29 14:13:49;;;;;;;21.70;10.70;;;;;;;;;;5019508;28;20036;-79
2024/01/29 14:16:15;;;;;;;24.02;11.63;;;;;;;;;;5028846;28;20140;-78
2024/01/29 14:18:41;;;;;;;25.50;12.20;;;;;;;;;;5003995;28;20053;-80
2024/01/29 14:21:07;;;;;;;24.50;12.73;;;;;;;;;;5007103;28;20101;-78